Time;durP1;ratioP1;P1;durP2;ratioP2;P2;SDS_P1;SDS_P2;PMS_P1;PMS_P2;Temp;Humidity;BMP_temperature;BMP_pressure;BME280_temperature;BME280_humidity;BME280_pressure;Samples;Min_cycle;Max_cycle;Signal;HPM_P1;HPM_P2
2022/10/20 00:00:18;;;;;;;;;;;;;;;-142.75;100.00;77733.84;5051300;28;19955;-65
2022/10/20 00:02:43;;;;;;;;;;;;;;;-142.75;100.00;77737.78;5052207;28;19970;-65
2022/10/20 00:05:08;;;;;;;;;;;;;;;-142.75;100.00;77739.75;5051340;28;19928;-65
2022/10/20 00:07:33;;;;;;;;;;;;;;;-142.75;100.00;77743.69;5051327;28;19921;-65
2022/10/20 00:09:58;;;;;;;;;;;;;;;-142.75;100.00;77725.97;5051310;28;20025;-66
2022/10/20 00:12:23;;;;;;;;;;;;;;;-142.75;100.00;77716.09;5050680;28;19916;-66
2022/10/20 00:14:49;;;;;;;;;;;;;;;-142.75;100.00;77706.25;5051104;28;19923;-66
2022/10/20 00:17:14;;;;;;;;;;;;;;;-142.75;100.00;77712.16;5050603;28;19917;-66
2022/10/20 00:19:39;;;;;;;;;;;;;;;-142.75;100.00;77700.34;5050979;28;19923;-66
2022/10/20 00:22:04;;;;;;;;;;;;;;;-142.75;100.00;77700.34;5050788;28;19923;-66
2022/10/20 00:24:29;;;;;;;;;;;;;;;-142.75;100.00;77706.25;5049859;28;20294;-66
2022/10/20 00:26:55;;;;;;;;;;;;;;;-142.75;100.00;77710.19;5051244;28;20003;-66
2022/10/20 00:29:20;;;;;;;;;;;;;;;-142.75;100.00;77696.41;5050753;28;19917;-66
2022/10/20 00:31:45;;;;;;;;;;;;;;;-142.75;100.00;77704.28;5050506;28;19917;-66
2022/10/20 00:34:10;;;;;;;;;;;;;;;-142.75;100.00;77702.31;5050670;28;19923;-66
2022/10/20 00:36:36;;;;;;;;;;;;;;;-142.75;100.00;77696.41;5050297;28;20390;-65
2022/10/20 00:39:03;;;;;;;;;;;;;;;-142.75;100.00;77706.25;5032280;28;20233;-66
2022/10/20 00:41:29;;;;;;;;;;;;;;;-142.75;100.00;77696.41;5050541;28;19924;-66
2022/10/20 00:43:55;;;;;;;;;;;;;;;-142.75;100.00;77684.59;5050196;28;19916;-66
2022/10/20 00:46:38;;;;;;;;;;;;;;;-142.75;100.00;77680.66;5050348;28;19959;-66
2022/10/20 00:49:23;;;;;;;;;;;;;;;-142.75;100.00;77692.47;5069453;28;19916;-66
2022/10/20 00:51:50;;;;;;;;;;;;;;;-142.75;100.00;77672.78;5070106;28;19916;-66
2022/10/20 00:54:16;;;;;;;;;;;;;;;-142.75;100.00;77678.69;5070078;28;19916;-66
2022/10/20 00:56:43;;;;;;;;;;;;;;;-142.75;100.00;77672.78;5070324;28;19916;-66
2022/10/20 00:59:08;;;;;;;;;;;;;;;-142.75;100.00;77688.53;5070277;28;19920;-66
2022/10/20 01:01:33;;;;;;;;;;;;;;;-142.75;100.00;77678.69;5069853;28;19961;-66
2022/10/20 01:03:59;;;;;;;;;;;;;;;-142.75;100.00;77672.78;5069948;28;19932;-66
2022/10/20 01:06:24;;;;;;;;;;;;;;;-142.75;100.00;77676.72;5069539;28;19920;-66
2022/10/20 01:08:51;;;;;;;;;;;;;;;-142.75;100.00;77682.63;5069568;28;19917;-66
2022/10/20 01:11:31;;;;;;;;;;;;;;;-142.75;100.00;77662.94;5069568;28;19916;-66
2022/10/20 01:13:57;;;;;;;;;;;;;;;-142.75;100.00;77645.22;5056781;28;19916;-66
2022/10/20 01:16:25;;;;;;;;;;;;;;;-142.75;100.00;77653.09;5049855;28;20294;-66
2022/10/20 01:19:00;;;;;;;;;;;;;;;-142.75;100.00;77659.00;5049553;28;19917;-66
2022/10/20 01:21:42;;;;;;;;;;;;;;;-142.75;100.00;77645.22;5049844;28;19923;-66
2022/10/20 01:24:07;;;;;;;;;;;;;;;-142.75;100.00;77649.16;5049735;28;19927;-66
2022/10/20 01:26:42;;;;;;;;;;;;;;;-142.75;100.00;77651.13;5049841;28;19920;-69
2022/10/20 01:29:07;;;;;;;;;;;;;;;-142.75;100.00;77643.25;5050216;28;20386;-67
2022/10/20 01:31:32;;;;;;;;;;;;;;;-142.75;100.00;77637.34;5068023;28;19924;-67
2022/10/20 01:34:05;;;;;;;;;;;;;;;-142.75;100.00;77649.16;5069310;28;19920;-67
2022/10/20 01:36:45;;;;;;;;;;;;;;;-142.75;100.00;77653.09;5069051;28;19924;-67
2022/10/20 01:39:16;;;;;;;;;;;;;;;-142.75;100.00;77651.13;5068093;28;19916;-67
2022/10/20 01:41:45;;;;;;;;;;;;;;;-142.75;100.00;77649.16;5068298;28;19916;-66
2022/10/20 01:44:13;;;;;;;;;;;;;;;-142.75;100.00;77641.28;5069183;28;20018;-67
2022/10/20 01:46:40;;;;;;;;;;;;;;;-142.75;100.00;77635.38;5068898;28;19931;-66
2022/10/20 01:49:06;;;;;;;;;;;;;;;-142.75;100.00;77627.50;5069173;28;19970;-66
2022/10/20 01:51:31;;;;;;;;;;;;;;;-142.75;100.00;77619.63;5069311;28;20282;-66
2022/10/20 01:53:56;;;;;;;;;;;;;;;-142.75;100.00;77623.56;5069241;28;19924;-66
2022/10/20 01:56:40;;;;;;;;;;;;;;;-142.75;100.00;77625.53;5069103;28;19938;-66
2022/10/20 01:59:18;;;;;;;;;;;;;;;-142.75;100.00;77627.50;5069787;28;20392;-66
2022/10/20 02:01:53;;;;;;;;;;;;;;;-142.75;100.00;77625.53;5069058;28;19970;-67
2022/10/20 02:04:22;;;;;;;;;;;;;;;-142.75;100.00;77631.44;5069105;28;19972;-66
2022/10/20 02:06:48;;;;;;;;;;;;;;;-142.75;100.00;77619.63;5068718;28;19924;-66
2022/10/20 02:09:21;;;;;;;;;;;;;;;-142.75;100.00;77619.63;5069018;28;19923;-66
2022/10/20 02:11:52;;;;;;;;;;;;;;;-142.75;100.00;77615.69;5068796;28;19923;-66
2022/10/20 02:14:18;;;;;;;;;;;;;;;-142.75;100.00;77613.72;5069038;28;19923;-66
2022/10/20 02:16:46;;;;;;;;;;;;;;;-142.75;100.00;77617.66;5068648;28;19951;-66
2022/10/20 02:19:13;;;;;;;;;;;;;;;-142.75;100.00;77615.69;5068971;28;19977;-66
2022/10/20 02:21:38;;;;;;;;;;;;;;;-142.75;100.00;77613.72;5068768;28;19973;-66
2022/10/20 02:24:05;;;;;;;;;;;;;;;-142.75;100.00;77596.00;5068807;28;19916;-66
2022/10/20 02:26:31;;;;;;;;;;;;;;;-142.75;100.00;77594.03;5068651;28;20387;-66
2022/10/20 02:28:59;;;;;;;;;;;;;;;-142.75;100.00;77590.09;5069415;28;20004;-67
2022/10/20 02:31:25;;;;;;;;;;;;;;;-142.75;100.00;77566.47;5068806;28;19955;-66
2022/10/20 02:33:51;;;;;;;;;;;;;;;-142.75;100.00;77576.31;5068737;28;20348;-66
2022/10/20 02:36:18;;;;;;;;;;;;;;;-142.75;100.00;77582.22;5067464;28;19969;-66
2022/10/20 02:38:43;;;;;;;;;;;;;;;-142.75;100.00;77580.25;5068498;28;20386;-65
2022/10/20 02:41:09;;;;;;;;;;;;;;;-142.75;100.00;77574.34;5049885;28;19974;-66
2022/10/20 02:43:34;;;;;;;;;;;;;;;-142.75;100.00;77562.53;5048652;28;19916;-66
2022/10/20 02:45:59;;;;;;;;;;;;;;;-142.75;100.00;77564.50;5048754;28;19917;-66
2022/10/20 02:48:24;;;;;;;;;;;;;;;-142.75;100.00;77560.56;5050795;28;20302;-66
2022/10/20 02:50:50;;;;;;;;;;;;;;;-142.75;100.00;77566.47;5052758;28;19936;-66
2022/10/20 02:53:15;;;;;;;;;;;;;;;-142.75;100.00;77558.59;5052358;28;19971;-66
2022/10/20 02:55:41;;;;;;;;;;;;;;;-142.75;100.00;77548.75;5052439;28;19921;-66
2022/10/20 02:58:06;;;;;;;;;;;;;;;-142.75;100.00;77552.69;5053144;28;19923;-66
2022/10/20 03:00:31;;;;;;;;;;;;;;;-142.75;100.00;77554.66;5055801;28;19995;-66
2022/10/20 03:02:56;;;;;;;;;;;;;;;-142.75;100.00;77538.91;5053312;28;19931;-66
2022/10/20 03:05:22;;;;;;;;;;;;;;;-142.75;100.00;77534.97;5052009;28;19924;-66
2022/10/20 03:07:47;;;;;;;;;;;;;;;-142.75;100.00;77546.78;5052948;28;19925;-66
2022/10/20 03:10:12;;;;;;;;;;;;;;;-142.75;100.00;77536.94;5053524;28;19917;-66
2022/10/20 03:12:37;;;;;;;;;;;;;;;-142.75;100.00;77527.09;5054240;28;20361;-66
2022/10/20 03:15:03;;;;;;;;;;;;;;;-142.75;100.00;77521.19;5052277;28;19916;-66
2022/10/20 03:17:28;;;;;;;;;;;;;;;-142.75;100.00;77509.38;5052257;28;19924;-66
2022/10/20 03:19:53;;;;;;;;;;;;;;;-142.75;100.00;77523.16;5051898;28;19945;-66
2022/10/20 03:22:19;;;;;;;;;;;;;;;-142.75;100.00;77513.31;5051889;28;19917;-65
2022/10/20 03:24:44;;;;;;;;;;;;;;;-142.75;100.00;77501.50;5051804;28;19952;-67
2022/10/20 03:27:09;;;;;;;;;;;;;;;-142.75;100.00;77499.53;5052380;28;19925;-66
2022/10/20 03:29:34;;;;;;;;;;;;;;;-142.75;100.00;77499.53;5052458;28;19920;-66
2022/10/20 03:32:00;;;;;;;;;;;;;;;-142.75;100.00;77497.56;5055898;28;20078;-66
2022/10/20 03:34:25;;;;;;;;;;;;;;;-142.75;100.00;77511.34;5058969;28;20405;-66
2022/10/20 03:36:50;;;;;;;;;;;;;;;-142.75;100.00;77503.47;5063834;28;20396;-66
2022/10/20 03:39:15;;;;;;;;;;;;;;;-142.75;100.00;77495.59;5072113;28;19917;-67
2022/10/20 03:41:41;;;;;;;;;;;;;;;-142.75;100.00;77489.69;5072227;28;19916;-66
2022/10/20 03:44:06;;;;;;;;;;;;;;;-142.75;100.00;77466.03;5072079;28;19917;-66
2022/10/20 03:46:31;;;;;;;;;;;;;;;-142.75;100.00;77464.09;5071835;28;19920;-66
2022/10/20 03:48:57;;;;;;;;;;;;;;;-142.75;100.00;77464.09;5071198;28;20378;-66
2022/10/20 03:51:22;;;;;;;;;;;;;;;-142.75;100.00;77460.13;5071424;28;19973;-66
2022/10/20 03:53:47;;;;;;;;;;;;;;;-142.75;100.00;77456.22;5071031;28;19924;-66
2022/10/20 03:56:15;;;;;;;;;;;;;;;-142.75;100.00;77460.13;5071176;28;19932;-66
2022/10/20 03:58:40;;;;;;;;;;;;;;;-142.75;100.00;77464.09;5071949;28;19939;-66
2022/10/20 04:01:08;;;;;;;;;;;;;;;-142.75;100.00;77462.13;5071118;28;20378;-66
2022/10/20 04:03:33;;;;;;;;;;;;;;;-142.75;100.00;77460.13;5070372;28;19916;-66
2022/10/20 04:05:58;;;;;;;;;;;;;;;-142.75;100.00;77444.38;5055258;28;20352;-66
2022/10/20 04:08:23;;;;;;;;;;;;;;;-142.75;100.00;77430.59;5050199;28;20402;-66
2022/10/20 04:10:48;;;;;;;;;;;;;;;-142.75;100.00;77428.63;5050514;28;20439;-66
2022/10/20 04:13:14;;;;;;;;;;;;;;;-142.75;100.00;77426.66;5068839;28;19917;-66
2022/10/20 04:15:39;;;;;;;;;;;;;;;-142.75;100.00;77410.91;5070169;28;19916;-66
2022/10/20 04:18:04;;;;;;;;;;;;;;;-142.75;100.00;77401.06;5069930;28;19916;-66
2022/10/20 04:20:29;;;;;;;;;;;;;;;-142.75;100.00;77399.09;5070540;28;20381;-66
2022/10/20 04:22:55;;;;;;;;;;;;;;;-142.75;100.00;77405.00;5071338;28;20010;-66
2022/10/20 04:25:20;;;;;;;;;;;;;;;-142.75;100.00;77393.19;5072068;28;19925;-66
2022/10/20 04:27:45;;;;;;;;;;;;;;;-142.75;100.00;77385.31;5072031;28;19956;-66
2022/10/20 04:30:10;;;;;;;;;;;;;;;-142.75;100.00;77379.41;5071752;28;19917;-66
2022/10/20 04:32:36;;;;;;;;;;;;;;;-142.75;100.00;77377.44;5071995;28;19924;-66
2022/10/20 04:35:01;;;;;;;;;;;;;;;-142.75;100.00;77373.50;5070360;28;19981;-66
2022/10/20 04:37:26;;;;;;;;;;;;;;;-142.75;100.00;77373.50;5062717;28;19916;-66
2022/10/20 04:39:51;;;;;;;;;;;;;;;-142.75;100.00;77373.50;5051678;28;20287;-66
2022/10/20 04:42:17;;;;;;;;;;;;;;;-142.75;100.00;77361.69;5050848;28;19921;-66
2022/10/20 04:44:42;;;;;;;;;;;;;;;-142.75;100.00;77373.50;5049252;28;19917;-67
2022/10/20 04:47:08;;;;;;;;;;;;;;;-142.75;100.00;77371.53;5051548;28;19929;-66
2022/10/20 04:49:33;;;;;;;;;;;;;;;-142.75;100.00;77371.53;5052440;28;19923;-66
2022/10/20 04:51:58;;;;;;;;;;;;;;;-142.75;100.00;77373.50;5051554;28;19924;-66
2022/10/20 04:54:23;;;;;;;;;;;;;;;-142.75;100.00;77375.47;5052010;28;20296;-66
2022/10/20 04:56:49;;;;;;;;;;;;;;;-142.75;100.00;77363.66;5051842;28;20011;-66
2022/10/20 04:59:14;;;;;;;;;;;;;;;-142.75;100.00;77355.78;5052057;28;19958;-66
2022/10/20 05:01:39;;;;;;;;;;;;;;;-142.75;100.00;77347.91;5052034;28;20286;-66
2022/10/20 05:04:04;;;;;;;;;;;;;;;-142.75;100.00;77342.00;5050616;28;19924;-66
2022/10/20 05:06:30;;;;;;;;;;;;;;;-142.75;100.00;77322.31;5052680;28;19925;-66
2022/10/20 05:08:57;;;;;;;;;;;;;;;-142.75;100.00;77310.50;5051921;28;19917;-65
2022/10/20 05:11:24;;;;;;;;;;;;;;;-142.75;100.00;77320.34;5051238;28;20004;-66
2022/10/20 05:13:49;;;;;;;;;;;;;;;-142.75;100.00;77320.34;5051727;28;19924;-66
2022/10/20 05:16:16;;;;;;;;;;;;;;;-142.75;100.00;77326.25;5051544;28;19917;-66
2022/10/20 05:18:42;;;;;;;;;;;;;;;-142.75;100.00;77320.34;5051367;28;19916;-65
2022/10/20 05:21:08;;;;;;;;;;;;;;;-142.75;100.00;77316.41;5052416;28;20019;-66
2022/10/20 05:23:34;;;;;;;;;;;;;;;-142.75;100.00;77308.53;5051973;28;19917;-66
2022/10/20 05:26:06;;;;;;;;;;;;;;;-142.75;100.00;77312.47;5053001;28;19917;-66
2022/10/20 05:28:32;;;;;;;;;;;;;;;-142.75;100.00;77300.66;5049861;28;19921;-66
2022/10/20 05:31:04;;;;;;;;;;;;;;;-142.75;100.00;77304.59;5054767;28;20432;-65
2022/10/20 05:33:29;;;;;;;;;;;;;;;-142.75;100.00;77298.69;5051746;28;20734;-66
2022/10/20 05:35:55;;;;;;;;;;;;;;;-142.75;100.00;77290.81;5051420;28;19992;-66
2022/10/20 05:38:20;;;;;;;;;;;;;;;-142.75;100.00;77288.84;5051071;28;20405;-66
2022/10/20 05:40:45;;;;;;;;;;;;;;;-142.75;100.00;77290.81;5051515;28;19917;-66
2022/10/20 05:43:10;;;;;;;;;;;;;;;-142.75;100.00;77286.88;5085666;22;20317;-68
2022/10/20 05:45:35;;;;;;;;;;;;;;;-142.75;100.00;77296.72;5066716;28;19924;-69
2022/10/20 05:48:01;;;;;;;;;;;;;;;-142.75;100.00;77296.72;5058109;28;20378;-70
2022/10/20 05:50:26;;;;;;;;;;;;;;;-142.75;100.00;77290.81;5071199;28;19925;-69
2022/10/20 05:52:51;;;;;;;;;;;;;;;-142.75;100.00;77300.66;5068036;28;19921;-70
2022/10/20 05:55:17;;;;;;;;;;;;;;;-142.75;100.00;77292.78;5052474;28;20410;-70
2022/10/20 05:57:42;;;;;;;;;;;;;;;-142.75;100.00;77294.75;5050907;28;20398;-70
2022/10/20 06:00:08;;;;;;;;;;;;;;;-142.75;100.00;77298.69;5051570;28;19920;-69
2022/10/20 06:02:33;;;;;;;;;;;;;;;-142.75;100.00;77294.75;5050916;28;19925;-69
2022/10/20 06:04:58;;;;;;;;;;;;;;;-142.75;100.00;77292.78;5050818;28;19921;-69
2022/10/20 06:07:23;;;;;;;;;;;;;;;-142.75;100.00;77290.81;5052889;28;20450;-70
2022/10/20 06:09:48;;;;;;;;;;;;;;;-142.75;100.00;77298.69;5062552;28;19923;-71
2022/10/20 06:12:14;;;;;;;;;;;;;;;-142.75;100.00;77290.81;5052324;28;19951;-69
2022/10/20 06:14:39;;;;;;;;;;;;;;;-142.75;100.00;77282.94;5050915;28;20298;-69
2022/10/20 06:17:04;;;;;;;;;;;;;;;-142.75;100.00;77275.06;5069481;28;20377;-69
2022/10/20 06:19:29;;;;;;;;;;;;;;;-142.75;100.00;77267.19;5070958;28;19920;-69
2022/10/20 06:21:54;;;;;;;;;;;;;;;-142.75;100.00;77261.28;5057783;28;20088;-69
2022/10/20 06:24:20;;;;;;;;;;;;;;;-142.75;100.00;77269.16;5037889;28;19991;-69
2022/10/20 06:26:45;;;;;;;;;;;;;;;-142.75;100.00;77267.19;5056630;28;20386;-69
2022/10/20 06:29:12;;;;;;;;;;;;;;;-142.75;100.00;77253.41;5075073;28;19916;-69
2022/10/20 06:31:38;;;;;;;;;;;;;;;-142.75;100.00;77261.28;5056200;28;19925;-70
2022/10/20 06:34:04;;;;;;;;;;;;;;;-142.75;100.00;77279.00;5073905;28;19920;-67
2022/10/20 06:36:32;;;;;;;;;;;;;;;-142.75;100.00;77288.84;5064352;28;20283;-68
2022/10/20 06:38:58;;;;;;;;;;;;;;;-142.75;100.00;77286.88;5054989;28;19916;-69
2022/10/20 06:41:24;;;;;;;;;;;;;;;-142.75;100.00;77265.22;5073880;28;20436;-68
2022/10/20 06:43:49;;;;;;;;;;;;;;;-142.75;100.00;77267.19;5073635;28;20007;-69
2022/10/20 06:46:15;;;;;;;;;;;;;;;-142.75;100.00;77259.31;5073866;28;19928;-68
2022/10/20 06:48:41;;;;;;;;;;;;;;;-142.75;100.00;77255.38;5067522;28;20374;-69
2022/10/20 06:51:08;;;;;;;;;;;;;;;-142.75;100.00;77245.53;5055410;28;20007;-68
2022/10/20 06:53:34;;;;;;;;;;;;;;;-142.75;100.00;77239.63;5051022;28;19955;-68
2022/10/20 06:56:01;;;;;;;;;;;;;;;-142.75;100.00;77235.69;5053797;28;19924;-64
2022/10/20 06:58:27;;;;;;;;;;;;;;;-142.75;100.00;77239.63;5071835;28;20409;-67
2022/10/20 07:00:59;;;;;;;;;;;;;;;-142.75;100.00;77229.78;5064159;28;19917;-68
2022/10/20 07:03:25;;;;;;;;;;;;;;;-142.75;100.00;77223.88;5059694;28;19924;-67
2022/10/20 07:05:50;;;;;;;;;;;;;;;-142.75;100.00;77216.00;5063713;28;19920;-69
2022/10/20 07:08:15;;;;;;;;;;;;;;;-142.75;100.00;77216.00;5063758;28;19920;-66
2022/10/20 07:10:40;;;;;;;;;;;;;;;-142.75;100.00;77216.00;5063967;28;20011;-68
2022/10/20 07:13:06;;;;;;;;;;;;;;;-142.75;100.00;77212.06;5035611;28;20326;-69
2022/10/20 07:15:31;;;;;;;;;;;;;;;-142.75;100.00;77208.13;5037526;28;19966;-68
2022/10/20 07:17:56;;;;;;;;;;;;;;;-142.75;100.00;77204.19;5039016;28;19916;-66
2022/10/20 07:20:21;;;;;;;;;;;;;;;-142.75;100.00;77196.31;5057792;28;19925;-67
2022/10/20 07:22:46;;;;;;;;;;;;;;;-142.75;100.00;77196.31;5043929;28;19917;-68
2022/10/20 07:25:12;;;;;;;;;;;;;;;-142.75;100.00;77200.25;5054507;28;19928;-68
2022/10/20 07:27:37;;;;;;;;;;;;;;;-142.75;100.00;77192.38;5064240;28;19969;-67
2022/10/20 07:30:03;;;;;;;;;;;;;;;-142.75;100.00;77180.56;5066314;28;19920;-68
2022/10/20 07:32:29;;;;;;;;;;;;;;;-142.75;100.00;77182.53;5042841;28;19921;-67
2022/10/20 07:34:54;;;;;;;;;;;;;;;-142.75;100.00;77172.69;5061116;28;20016;-68
2022/10/20 07:37:19;;;;;;;;;;;;;;;-142.75;100.00;77164.81;5052628;28;20016;-68
2022/10/20 07:39:44;;;;;;;;;;;;;;;-142.75;100.00;77166.78;5046924;28;20153;-68
2022/10/20 07:42:10;;;;;;;;;;;;;;;-142.75;100.00;77164.81;5053875;28;19959;-68
2022/10/20 07:44:35;;;;;;;;;;;;;;;-142.75;100.00;77154.97;5069326;28;19924;-69
2022/10/20 07:47:00;;;;;;;;;;;;;;;-142.75;100.00;77158.91;5052299;28;19924;-68
2022/10/20 07:49:25;;;;;;;;;;;;;;;-142.75;100.00;77158.91;5052558;28;19925;-68
2022/10/20 07:51:50;;;;;;;;;;;;;;;-142.75;100.00;77160.88;5052646;28;19917;-67
2022/10/20 07:54:16;;;;;;;;;;;;;;;-142.75;100.00;77147.09;5061685;28;19917;-68
2022/10/20 07:56:42;;;;;;;;;;;;;;;-142.75;100.00;77149.06;5064943;28;20043;-66
2022/10/20 07:59:08;;;;;;;;;;;;;;;-142.75;100.00;77147.09;5044925;28;19917;-67
2022/10/20 08:01:33;;;;;;;;;;;;;;;-142.75;100.00;77143.16;5059637;28;19923;-67
2022/10/20 08:03:58;;;;;;;;;;;;;;;-142.75;100.00;77137.25;5068547;28;19917;-68
2022/10/20 08:06:24;;;;;;;;;;;;;;;-142.75;100.00;77125.44;5071604;28;19934;-66
2022/10/20 08:08:49;;;;;;;;;;;;;;;-142.75;100.00;77119.53;5050004;28;19964;-68
2022/10/20 08:11:15;;;;;;;;;;;;;;;-142.75;100.00;77111.66;5052425;28;19928;-69
2022/10/20 08:13:41;;;;;;;;;;;;;;;-142.75;100.00;77123.47;5052061;28;20004;-68
2022/10/20 08:16:07;;;;;;;;;;;;;;;-142.75;100.00;77115.59;5052192;28;20365;-67
2022/10/20 08:18:33;;;;;;;;;;;;;;;-142.75;100.00;77105.75;5052083;28;20444;-68
2022/10/20 08:21:15;;;;;;;;;;;;;;;-142.75;100.00;77113.63;5052230;28;19921;-68
2022/10/20 08:23:41;;;;;;;;;;;;;;;-142.75;100.00;77101.81;5071770;28;20454;-69
2022/10/20 08:26:07;;;;;;;;;;;;;;;-142.75;100.00;77091.97;5072125;28;19930;-68
2022/10/20 08:28:32;;;;;;;;;;;;;;;-142.75;100.00;77091.97;5072238;28;20348;-68
2022/10/20 08:30:59;;;;;;;;;;;;;;;-142.75;100.00;77090.00;5053877;28;19951;-67
2022/10/20 08:33:25;;;;;;;;;;;;;;;-142.75;100.00;77080.16;5048514;28;19916;-68
2022/10/20 08:35:50;;;;;;;;;;;;;;;-142.75;100.00;77074.25;5062182;28;19917;-66
2022/10/20 08:38:15;;;;;;;;;;;;;;;-142.75;100.00;77066.38;5060243;28;19928;-67
2022/10/20 08:40:41;;;;;;;;;;;;;;;-142.75;100.00;77056.53;5062216;28;19921;-68
2022/10/20 08:43:10;;;;;;;;;;;;;;;-142.75;100.00;77056.53;5060948;28;19923;-66
2022/10/20 08:45:35;;;;;;;;;;;;;;;-142.75;100.00;77060.47;5059888;28;19929;-67
2022/10/20 08:48:01;;;;;;;;;;;;;;;-142.75;100.00;77046.69;5061809;28;20405;-68
2022/10/20 08:50:27;;;;;;;;;;;;;;;-142.75;100.00;77034.88;5061073;28;19920;-68
2022/10/20 08:52:57;;;;;;;;;;;;;;;-142.75;100.00;77034.88;5060384;28;20018;-68
2022/10/20 08:55:30;;;;;;;;;;;;;;;-142.75;100.00;77023.06;5066090;28;19920;-68
2022/10/20 08:57:58;;;;;;;;;;;;;;;-142.75;100.00;77013.22;5071185;28;19916;-68
2022/10/20 09:00:23;;;;;;;;;;;;;;;-142.75;100.00;77001.41;5053779;28;19925;-67
2022/10/20 09:02:50;;;;;;;;;;;;;;;-142.75;100.00;76999.44;5071405;28;19925;-67
2022/10/20 09:05:18;;;;;;;;;;;;;;;-142.75;100.00;76983.69;5071218;28;19920;-68
2022/10/20 09:07:43;;;;;;;;;;;;;;;-142.75;100.00;76967.94;5053004;28;20417;-67
2022/10/20 09:10:14;;;;;;;;;;;;;;;-142.75;100.00;76971.88;5071116;28;20061;-69
2022/10/20 09:12:41;;;;;;;;;;;;;;;-142.75;100.00;76958.09;5050772;28;19916;-68
2022/10/20 09:15:09;;;;;;;;;;;;;;;-142.75;100.00;76940.38;5060130;28;20066;-67
2022/10/20 09:17:34;;;;;;;;;;;;;;;-142.75;100.00;76936.44;5059547;28;19924;-65
2022/10/20 09:20:00;;;;;;;;;;;;;;;-142.75;100.00;76920.69;5061841;28;19917;-68
2022/10/20 09:22:27;;;;;;;;;;;;;;;-142.75;100.00;76899.03;5042171;28;20025;-67
2022/10/20 09:24:55;;;;;;;;;;;;;;;-142.75;100.00;76904.94;5059017;28;20302;-68
2022/10/20 09:27:33;;;;;;;;;;;;;;;-142.75;100.00;76885.25;5056824;28;19924;-68
2022/10/20 09:30:11;;;;;;;;;;;;;;;-142.75;100.00;76881.31;5036540;28;20440;-68
2022/10/20 09:32:36;;;;;;;;;;;;;;;-142.75;100.00;76879.34;5050554;28;19916;-69
2022/10/20 09:35:31;;;;;;;;;;;;;;;-142.75;100.00;76875.41;5050849;28;19917;-67
2022/10/20 09:37:56;;;;;;;;;;;;;;;-142.75;100.00;76877.38;5021857;28;20394;-68
2022/10/20 09:40:22;;;;;;;;;;;;;;;-142.75;100.00;76869.50;5050679;28;19982;-69
2022/10/20 09:43:02;;;;;;;;;;;;;;;-142.75;100.00;76857.69;5050570;28;19952;-69
2022/10/20 09:45:28;;;;;;;;;;;;;;;-142.75;100.00;76849.81;5070404;28;19920;-68
2022/10/20 09:47:57;;;;;;;;;;;;;;;-142.75;100.00;76845.88;5035060;28;19986;-68
2022/10/20 09:50:26;;;;;;;;;;;;;;;-142.75;100.00;76824.22;5064840;28;20310;-68
2022/10/20 09:52:52;;;;;;;;;;;;;;;-142.75;100.00;76814.38;5050498;28;19924;-67
2022/10/20 09:55:32;;;;;;;;;;;;;;;-142.75;100.00;76818.31;5061780;28;19916;-68
2022/10/20 09:58:00;;;;;;;;;;;;;;;-142.75;100.00;76794.69;5060243;28;19916;-66
2022/10/20 10:00:42;;;;;;;;;;;;;;;-142.75;100.00;76794.69;5063507;28;19932;-68
2022/10/20 10:03:20;;;;;;;;;;;;;;;-142.75;100.00;76796.69;5062053;28;20004;-68
2022/10/20 10:05:47;;;;;;;;;;;;;;;-142.75;100.00;76790.78;5059624;28;20006;-69
2022/10/20 10:08:13;;;;;;;;;;;;;;;-142.75;100.00;76782.91;5053003;28;19924;-69
2022/10/20 10:10:39;;;;;;;;;;;;;;;-142.75;100.00;76755.34;5050359;28;20004;-69
2022/10/20 10:13:04;;;;;;;;;;;;;;;-142.75;100.00;76735.66;5050230;28;20003;-69
2022/10/20 10:15:32;;;;;;;;;;;;;;;-142.75;100.00;76727.78;5050248;28;19917;-69
2022/10/20 10:17:58;;;;;;;;;;;;;;;-142.75;100.00;76712.03;5050112;28;19940;-67
2022/10/20 10:20:32;;;;;;;;;;;;;;;-142.75;100.00;76721.88;5032346;28;19932;-68
2022/10/20 10:23:15;;;;;;;;;;;;;;;-142.75;100.00;76717.94;5070186;28;20290;-68
2022/10/20 10:25:40;;;;;;;;;;;;;;;-142.75;100.00;76704.16;5042895;28;20008;-70
2022/10/20 10:28:18;;;;;;;;;;;;;;;-142.75;100.00;76690.38;5057466;28;19927;-68
2022/10/20 10:30:43;;;;;;;;;;;;;;;-142.75;100.00;76678.56;5050535;28;19916;-68
2022/10/20 10:33:22;;;;;;;;;;;;;;;-142.75;100.00;76674.63;5051248;28;19924;-68
2022/10/20 10:35:48;;;;;;;;;;;;;;;-142.75;100.00;76676.59;5059671;28;19923;-68
2022/10/20 10:38:13;;;;;;;;;;;;;;;-142.75;100.00;76672.66;5039486;28;19920;-67
2022/10/20 10:40:54;;;;;;;;;;;;;;;-142.75;100.00;76676.59;5058385;28;19925;-68
2022/10/20 10:43:28;;;;;;;;;;;;;;;-142.75;100.00;76660.84;5055845;28;19923;-68
2022/10/20 10:46:07;;;;;;;;;;;;;;;-142.75;100.00;76664.78;5041789;28;20401;-69
2022/10/20 10:48:49;;;;;;;;;;;;;;;-142.75;100.00;76678.56;5059114;28;19955;-68
2022/10/20 10:51:37;;;;;;;;;;;;;;;-142.75;100.00;76672.66;5058349;28;19962;-69
2022/10/20 10:54:11;;;;;;;;;;;;;;;-142.75;100.00;76656.91;5019378;28;19917;-66
2022/10/20 10:56:43;;;;;;;;;;;;;;;-142.75;100.00;76651.00;5041536;28;19921;-67
2022/10/20 10:59:11;;;;;;;;;;;;;;;-142.75;100.00;76641.16;5063033;28;19916;-66
2022/10/20 11:01:39;;;;;;;;;;;;;;;-142.75;100.00;76641.16;5034394;28;19924;-68
2022/10/20 11:04:18;;;;;;;;;;;;;;;-142.75;100.00;76641.16;5060680;28;19961;-69
2022/10/20 11:06:43;;;;;;;;;;;;;;;-142.75;100.00;76641.16;5049994;28;19931;-68
2022/10/20 11:09:23;;;;;;;;;;;;;;;-142.75;100.00;76629.34;5069824;28;19916;-67
2022/10/20 11:11:54;;;;;;;;;;;;;;;-142.75;100.00;76627.38;5055795;28;19917;-68
2022/10/20 11:14:22;;;;;;;;;;;;;;;-142.75;100.00;76625.41;5055879;28;19917;-66
2022/10/20 11:16:59;;;;;;;;;;;;;;;-142.75;100.00;76621.47;5070475;28;20577;-66
2022/10/20 11:19:33;;;;;;;;;;;;;;;-142.75;100.00;76605.72;5062871;28;19924;-66
2022/10/20 11:22:16;;;;;;;;;;;;;;;-142.75;100.00;76574.22;5064169;28;19920;-67
2022/10/20 11:24:48;;;;;;;;;;;;;;;-142.75;100.00;76582.09;5042192;28;19928;-67
2022/10/20 11:27:18;;;;;;;;;;;;;;;-142.75;100.00;76562.41;5061423;28;19917;-67
2022/10/20 11:29:46;;;;;;;;;;;;;;;-142.75;100.00;76570.28;5048601;28;19917;-66
2022/10/20 11:32:33;;;;;;;;;;;;;;;-142.75;100.00;76562.41;5044042;28;19931;-67
2022/10/20 11:35:02;;;;;;;;;;;;;;;-142.75;100.00;76554.53;5040458;28;20370;-66
2022/10/20 11:37:29;;;;;;;;;;;;;;;-142.75;100.00;76570.28;5058962;28;19955;-69
2022/10/20 11:39:59;;;;;;;;;;;;;;;-142.75;100.00;76562.41;5063531;28;19916;-68
2022/10/20 11:42:30;;;;;;;;;;;;;;;-142.75;100.00;76578.16;5064185;28;19977;-68
2022/10/20 11:44:55;;;;;;;;;;;;;;;-142.75;100.00;76586.03;5090152;23;19928;-66
2022/10/20 11:47:38;;;;;;;;;;;;;;;-142.75;100.00;76584.06;5100744;28;19928;-67
2022/10/20 11:50:05;;;;;;;;;;;;;;;-142.75;100.00;76580.13;5100387;28;19916;-66
2022/10/20 11:52:49;;;;;;;;;;;;;;;-142.75;100.00;76572.25;5105028;28;19916;-67
2022/10/20 11:55:14;;;;;;;;;;;;;;;-142.75;100.00;76564.38;5089177;28;20037;-66
2022/10/20 11:57:55;;;;;;;;;;;;;;;-142.75;100.00;76554.53;5082310;28;19916;-67
2022/10/20 12:00:26;;;;;;;;;;;;;;;-142.75;100.00;76550.59;5085758;28;19916;-66
2022/10/20 12:03:29;;;;;;;;;;;;;;;-142.75;100.00;76550.59;5081642;28;19916;-67
2022/10/20 12:05:57;;;;;;;;;;;;;;;-142.75;100.00;76538.78;5030291;28;19921;-66
2022/10/20 12:08:48;;;;;;;;;;;;;;;-142.75;100.00;76540.75;5029888;28;20461;-67
2022/10/20 12:11:16;;;;;;;;;;;;;;;-142.75;100.00;76546.66;5066236;28;19924;-66
2022/10/20 12:13:48;;;;;;;;;;;;;;;-142.75;100.00;76538.78;5082023;28;19917;-66
2022/10/20 12:16:33;;;;;;;;;;;;;;;-142.75;100.00;76534.84;5089916;28;19923;-65
2022/10/20 12:19:14;;;;;;;;;;;;;;;-142.75;100.00;76546.66;5081331;28;19917;-66
2022/10/20 12:21:56;;;;;;;;;;;;;;;-142.75;100.00;76542.72;5084446;28;20007;-66